Time;durP1;ratioP1;P1;durP2;ratioP2;P2;SDS_P1;SDS_P2;PMS_P1;PMS_P2;Temp;Humidity;BMP_temperature;BMP_pressure;BME280_temperature;BME280_humidity;BME280_pressure;Samples;Min_cycle;Max_cycle;Signal;HPM_P1;HPM_P2
2021/12/02 00:01:39;;;;;;;28.67;21.65;;;;;;;11.92;33.23;93994.25;5062594;28;20052;-67
2021/12/02 00:04:06;;;;;;;26.42;19.23;;;;;;;13.25;30.73;94007.69;5057469;28;20053;-68
2021/12/02 00:06:34;;;;;;;31.48;21.92;;;;;;;13.03;31.27;94010.50;5055529;28;20061;-68
2021/12/02 00:09:01;;;;;;;34.40;22.10;;;;;;;15.86;26.63;93992.69;5060730;28;20060;-67
2021/12/02 00:11:29;;;;;;;36.55;22.75;;;;;;;16.69;25.72;93999.41;5056717;28;20367;-67
2021/12/02 00:13:59;;;;;;;43.20;26.77;;;;;;;15.19;27.88;94007.72;5055519;28;20045;-67
2021/12/02 00:16:38;;;;;;;31.10;20.90;;;;;;;14.28;28.78;94000.56;5054588;28;20051;-67
2021/12/02 00:21:53;;;;;;;38.60;23.48;;;;;;;12.38;32.63;94019.19;5062879;28;20051;-56
2021/12/02 00:24:23;;;;;;;35.15;22.83;;;;;;;12.63;32.00;94026.34;5075906;28;20355;-55
2021/12/02 00:26:52;;;;;;;32.97;21.63;;;;;;;13.38;30.68;94022.53;5075908;28;20044;-54
2021/12/02 00:29:21;;;;;;;30.15;19.40;;;;;;;14.22;29.52;94015.00;5074609;28;20067;-54
2021/12/02 00:31:50;;;;;;;23.67;16.08;;;;;;;14.77;28.53;94018.25;5075039;28;20059;-55
2021/12/02 00:34:19;;;;;;;18.20;14.15;;;;;;;15.59;27.08;94010.63;5074444;28;20048;-54
2021/12/02 00:36:46;;;;;;;23.13;15.45;;;;;;;15.00;28.04;94015.31;5054425;28;20049;-51
2021/12/02 00:39:16;;;;;;;28.85;18.13;;;;;;;14.04;29.30;94012.44;5065343;28;20048;-53
2021/12/02 00:41:43;;;;;;;27.25;18.30;;;;;;;14.31;28.84;94010.47;5075621;28;20044;-59
2021/12/02 00:44:11;;;;;;;27.42;18.58;;;;;;;13.15;30.68;94008.00;5071061;28;20052;-57
2021/12/02 00:46:39;;;;;;;24.73;18.15;;;;;;;12.86;31.04;94012.03;5063705;28;20044;-51
2021/12/02 00:49:11;;;;;;;27.60;18.02;;;;;;;12.50;31.93;94011.53;5072648;28;20079;-50
2021/12/02 00:51:38;;;;;;;30.67;19.95;;;;;;;11.73;33.46;94000.47;5055781;28;20048;-67
2021/12/02 00:54:10;;;;;;;35.35;23.30;;;;;;;13.77;30.07;94018.09;5073887;28;20048;-67
2021/12/02 00:56:37;;;;;;;31.75;22.85;;;;;;;13.54;30.33;94010.47;5057970;28;20045;-54
2021/12/02 00:59:06;;;;;;;28.17;20.90;;;;;;;13.60;30.28;94013.69;5054542;28;20440;-67
2021/12/02 01:01:35;;;;;;;25.42;18.52;;;;;;;14.91;28.30;94012.00;5059370;28;20324;-67
2021/12/02 01:04:11;;;;;;;33.20;22.27;;;;;;;13.40;29.77;94012.47;5074297;28;20044;-66
2021/12/02 01:06:39;;;;;;;28.85;21.27;;;;;;;12.70;31.76;94012.78;5060707;28;20053;-67
2021/12/02 01:09:08;;;;;;;30.42;20.63;;;;;;;12.19;32.42;94020.22;5063166;28;20370;-67
2021/12/02 01:11:36;;;;;;;29.08;20.58;;;;;;;12.11;32.47;94010.50;5056462;28;20056;-55
2021/12/02 01:14:04;;;;;;;31.98;21.40;;;;;;;12.20;32.40;94016.53;5073826;28;20048;-65
2021/12/02 01:16:31;;;;;;;27.33;19.30;;;;;;;12.31;32.42;94004.69;5074524;28;20052;-67
2021/12/02 01:18:58;;;;;;;27.90;19.73;;;;;;;12.50;32.19;94011.53;5074342;28;20048;-67
2021/12/02 01:21:27;;;;;;;28.63;19.73;;;;;;;11.68;33.23;93999.81;5072021;28;20052;-68
2021/12/02 01:24:03;;;;;;;27.48;19.08;;;;;;;11.43;34.00;94006.44;5070011;28;20047;-66
2021/12/02 01:26:32;;;;;;;28.08;19.92;;;;;;;11.51;33.99;94005.75;5057734;28;20056;-67
2021/12/02 01:29:00;;;;;;;28.05;19.45;;;;;;;12.09;32.60;94017.88;5054198;28;20059;-66
2021/12/02 01:31:32;;;;;;;25.40;18.92;;;;;;;11.46;33.54;94013.72;5056418;28;20060;-66
2021/12/02 01:34:06;;;;;;;29.48;19.60;;;;;;;11.87;33.24;94025.81;5073978;28;20044;-51
2021/12/02 01:36:36;;;;;;;26.67;18.88;;;;;;;12.12;32.97;94030.38;5074609;28;20049;-67
2021/12/02 01:39:05;;;;;;;26.90;19.60;;;;;;;11.77;33.28;94020.81;5070111;28;20063;-53
2021/12/02 01:41:37;;;;;;;28.40;20.42;;;;;;;12.83;31.53;94017.88;5074117;28;20056;-67
2021/12/02 01:44:11;;;;;;;30.83;20.77;;;;;;;12.23;32.08;94013.31;5073915;28;20344;-67
2021/12/02 01:46:39;;;;;;;29.58;22.25;;;;;;;13.42;30.30;94012.94;5067164;28;20049;-67
2021/12/02 01:49:10;;;;;;;26.95;20.48;;;;;;;12.13;32.14;94013.56;5054268;28;20372;-67
2021/12/02 01:51:55;;;;;;;31.15;21.73;;;;;;;10.69;35.00;94008.72;5057597;28;20051;-67
2021/12/02 01:54:24;;;;;;;38.60;27.92;;;;;;;11.56;33.32;94003.00;5068909;28;20056;-52
2021/12/02 01:56:53;;;;;;;43.53;29.58;;;;;;;11.79;33.37;93992.50;5074879;28;20332;-54
2021/12/02 01:59:23;;;;;;;38.58;28.88;;;;;;;12.50;32.33;93987.94;5073183;28;20123;-54
2021/12/02 02:01:55;;;;;;;41.50;29.00;;;;;;;11.91;33.09;93990.06;5074610;28;20052;-51
2021/12/02 02:04:23;;;;;;;43.10;28.08;;;;;;;11.54;33.95;93976.34;5074105;28;20051;-56
2021/12/02 02:07:02;;;;;;;34.85;26.55;;;;;;;12.43;32.13;93977.88;5076455;28;20056;-54
2021/12/02 02:09:33;;;;;;;36.78;26.20;;;;;;;11.65;33.91;93980.22;5078138;28;20421;-53
2021/12/02 02:12:11;;;;;;;35.38;24.75;;;;;;;11.95;33.01;93980.53;5077625;28;20055;-54
2021/12/02 02:14:40;;;;;;;31.30;23.38;;;;;;;11.47;34.05;93965.53;5077686;28;20055;-67
2021/12/02 02:19:43;;;;;;;31.30;21.38;;;;;;;12.86;31.71;93962.19;5077667;28;20470;-68
2021/12/02 02:22:12;;;;;;;33.22;23.77;;;;;;;13.34;30.87;93963.84;5058378;28;20049;-68
2021/12/02 02:24:39;;;;;;;28.50;21.25;;;;;;;13.71;29.91;93961.56;5061554;28;20049;-67
2021/12/02 02:27:06;;;;;;;26.52;20.92;;;;;;;12.83;31.30;93975.91;5057843;28;20055;-66
2021/12/02 02:29:33;;;;;;;26.95;21.05;;;;;;;11.90;33.05;93962.34;5057435;28;20063;-67
2021/12/02 02:32:00;;;;;;;30.50;21.20;;;;;;;11.57;34.10;93980.97;5064947;28;20047;-51
2021/12/02 02:34:27;;;;;;;26.13;19.50;;;;;;;11.30;34.43;93986.38;5077203;28;20477;-62
2021/12/02 02:36:56;;;;;;;26.58;19.38;;;;;;;12.77;31.54;93992.91;5077566;28;20739;-67
2021/12/02 02:39:25;;;;;;;26.73;20.00;;;;;;;13.69;30.23;93979.50;5064736;28;20056;-67
2021/12/02 02:42:00;;;;;;;29.00;22.40;;;;;;;13.00;30.49;93969.09;5063334;28;20083;-67
2021/12/02 02:44:29;;;;;;;32.75;22.48;;;;;;;14.86;28.58;93975.34;5072264;28;20052;-67
2021/12/02 02:46:56;;;;;;;27.90;20.88;;;;;;;14.69;28.41;93969.13;5076230;28;20049;-59
2021/12/02 02:49:24;;;;;;;26.63;19.95;;;;;;;14.29;29.11;93973.97;5077448;28;20048;-52
2021/12/02 02:51:51;;;;;;;23.75;18.90;;;;;;;12.60;31.52;93982.38;5077262;28;20044;-67
2021/12/02 02:54:19;;;;;;;25.38;19.70;;;;;;;12.25;32.58;93986.81;5074973;28;20055;-67
2021/12/02 02:57:07;;;;;;;26.60;20.50;;;;;;;13.11;31.19;93983.47;5056976;28;20064;-67
2021/12/02 02:59:44;;;;;;;31.17;22.17;;;;;;;13.51;30.55;93990.03;5058393;28;20368;-52
2021/12/02 03:02:24;;;;;;;31.90;22.42;;;;;;;11.71;33.38;93973.81;5060594;28;20052;-54
2021/12/02 03:04:56;;;;;;;30.92;21.42;;;;;;;12.77;32.02;93966.66;5076358;28;20048;-67
2021/12/02 03:10:32;;;;;;;29.42;20.75;;;;;;;12.69;31.99;93970.03;5047789;28;20052;-67
2021/12/02 03:13:11;;;;;;;26.38;18.75;;;;;;;13.37;31.02;93963.22;5058635;28;20060;-52
2021/12/02 03:18:25;;;;;;;26.20;18.75;;;;;;;13.33;30.73;93966.78;5075021;28;20361;-67
2021/12/02 03:20:52;;;;;;;26.73;20.25;;;;;;;12.61;32.10;93960.31;5076663;28;20040;-52
2021/12/02 03:23:19;;;;;;;25.55;19.75;;;;;;;12.68;31.99;93968.50;5076179;28;20048;-67
2021/12/02 03:25:47;;;;;;;27.83;20.23;;;;;;;12.44;32.27;93968.16;5076397;28;20052;-67
2021/12/02 03:28:14;;;;;;;27.58;20.30;;;;;;;12.21;32.43;93973.50;5076080;28;20052;-67
2021/12/02 03:30:41;;;;;;;28.02;19.70;;;;;;;13.75;29.70;93963.25;5065429;28;20056;-67
2021/12/02 03:33:09;;;;;;;28.15;20.23;;;;;;;13.99;29.74;93957.44;5059270;28;20052;-59
2021/12/02 03:35:36;;;;;;;28.30;19.55;;;;;;;13.18;30.76;93957.53;5076257;28;20040;-66
2021/12/02 03:38:03;;;;;;;25.38;18.33;;;;;;;12.70;31.93;93953.22;5075008;28;20059;-67
2021/12/02 03:40:30;;;;;;;25.02;17.85;;;;;;;13.13;31.36;93952.44;5056123;28;20459;-67
2021/12/02 03:42:57;;;;;;;22.63;17.67;;;;;;;11.80;33.25;93939.81;5057636;28;20045;-58
2021/12/02 03:45:25;;;;;;;23.90;17.30;;;;;;;12.82;31.57;93936.88;5057918;28;20049;-66
2021/12/02 03:47:53;;;;;;;26.15;17.95;;;;;;;12.33;32.75;93957.22;5055933;28;20351;-67
2021/12/02 03:50:20;;;;;;;23.02;17.17;;;;;;;11.90;33.12;93954.47;5055793;28;20056;-67
2021/12/02 03:52:48;;;;;;;24.20;17.50;;;;;;;11.95;33.28;93962.19;5055767;28;20053;-67
2021/12/02 03:55:15;;;;;;;25.70;17.40;;;;;;;12.16;32.76;93963.19;5072710;28;20059;-67
2021/12/02 03:57:42;;;;;;;23.85;17.60;;;;;;;11.82;33.52;93956.00;5075724;28;20047;-67
2021/12/02 04:00:10;;;;;;;22.65;17.23;;;;;;;12.41;32.39;93948.56;5075623;28;20443;-60
2021/12/02 04:02:39;;;;;;;25.63;17.50;;;;;;;12.92;31.12;93939.16;5075866;28;20052;-69
2021/12/02 04:05:06;;;;;;;21.90;17.08;;;;;;;14.15;29.35;93931.38;5060236;28;20053;-67
2021/12/02 04:07:34;;;;;;;26.08;17.48;;;;;;;12.57;31.46;93944.44;5054669;28;20056;-67
2021/12/02 04:10:01;;;;;;;22.75;16.45;;;;;;;12.41;32.07;93950.44;5062707;28;20049;-57
2021/12/02 04:15:32;;;;;;;21.00;15.82;;;;;;;13.56;30.22;93947.88;5020718;28;20048;-67
2021/12/02 04:18:00;;;;;;;21.20;16.20;;;;;;;12.53;31.55;93950.59;5037977;28;20443;-53
2021/12/02 04:20:27;;;;;;;21.42;15.07;;;;;;;13.06;31.08;93941.63;5055500;28;20072;-68
2021/12/02 04:22:59;;;;;;;20.65;15.63;;;;;;;11.85;33.47;93954.63;5055711;28;20051;-51
2021/12/02 04:25:27;;;;;;;19.48;14.85;;;;;;;12.06;32.81;93947.75;5073919;28;20048;-66
2021/12/02 04:27:54;;;;;;;20.30;15.35;;;;;;;12.08;32.28;93956.09;5056801;28;20359;-51
2021/12/02 04:30:24;;;;;;;20.58;15.18;;;;;;;13.15;30.41;93945.00;5054914;28;20071;-67
2021/12/02 04:32:51;;;;;;;20.20;14.65;;;;;;;12.17;32.05;93933.28;5055413;28;20049;-56
2021/12/02 04:35:18;;;;;;;18.42;14.63;;;;;;;11.43;33.60;93925.31;5070526;28;20044;-55
2021/12/02 04:37:48;;;;;;;19.15;15.10;;;;;;;11.64;33.21;93926.31;5055323;28;20052;-56
2021/12/02 04:40:16;;;;;;;19.17;14.30;;;;;;;12.27;32.21;93927.00;5062835;28;20063;-67
2021/12/02 04:42:43;;;;;;;26.90;19.20;;;;;;;13.24;30.01;93922.94;5055028;28;20048;-67
2021/12/02 04:45:11;;;;;;;24.23;17.33;;;;;;;12.87;31.24;93934.88;5071710;28;20094;-56
2021/12/02 04:47:38;;;;;;;21.92;17.27;;;;;;;11.93;32.91;93930.28;5074546;28;20059;-53
2021/12/02 04:50:08;;;;;;;19.42;13.88;;;;;;;13.47;30.28;93928.75;5075090;28;20053;-57
2021/12/02 04:52:35;;;;;;;23.42;15.95;;;;;;;12.42;31.94;93923.91;5075225;28;20451;-50
2021/12/02 04:55:04;;;;;;;23.20;15.35;;;;;;;12.22;31.95;93909.53;5074168;28;20379;-58
2021/12/02 04:57:31;;;;;;;21.23;15.55;;;;;;;12.60;31.91;93930.72;5074366;28;20048;-67
2021/12/02 04:59:58;;;;;;;22.75;16.65;;;;;;;12.77;31.23;93932.56;5073852;28;20048;-67
2021/12/02 05:02:25;;;;;;;22.25;16.40;;;;;;;11.72;33.20;93922.97;5074507;28;20465;-50
2021/12/02 05:04:52;;;;;;;20.42;14.60;;;;;;;11.73;32.89;93919.28;5073877;28;20052;-67
2021/12/02 05:07:19;;;;;;;21.52;16.63;;;;;;;11.73;33.58;93919.28;5067887;28;20049;-52
2021/12/02 05:09:46;;;;;;;20.67;15.40;;;;;;;12.39;31.95;93902.78;5069407;28;20051;-67
2021/12/02 05:12:13;;;;;;;21.05;16.13;;;;;;;12.53;32.16;93904.19;5073634;28;20055;-52
2021/12/02 05:14:40;;;;;;;22.00;16.27;;;;;;;13.02;31.10;93911.84;5074936;28;20048;-52
2021/12/02 05:17:08;;;;;;;23.33;16.38;;;;;;;11.62;33.27;93899.69;5068245;28;20048;-49
2021/12/02 05:19:35;;;;;;;22.33;16.38;;;;;;;12.64;31.37;93902.00;5054364;28;20060;-59
2021/12/02 05:22:02;;;;;;;19.88;16.00;;;;;;;12.42;32.10;93907.41;5064726;28;20055;-51
2021/12/02 05:24:29;;;;;;;20.58;15.63;;;;;;;12.42;31.79;93896.91;5073447;28;20040;-54
2021/12/02 05:26:56;;;;;;;20.20;15.43;;;;;;;12.55;31.67;93901.25;5073852;28;20366;-53
2021/12/02 05:29:23;;;;;;;26.10;19.30;;;;;;;12.95;31.11;93913.09;5075110;28;20055;-52
2021/12/02 05:31:50;;;;;;;23.58;18.20;;;;;;;12.80;31.38;93902.31;5074697;28;20048;-53
2021/12/02 05:34:17;;;;;;;23.27;18.13;;;;;;;11.12;33.78;93905.16;5073159;28;20052;-60
2021/12/02 05:36:45;;;;;;;19.13;15.27;;;;;;;13.48;30.31;93906.66;5073495;28;20447;-57
2021/12/02 05:39:12;;;;;;;21.48;15.48;;;;;;;12.71;31.49;93896.28;5064924;28;20052;-57
2021/12/02 05:41:39;;;;;;;20.85;15.23;;;;;;;13.54;30.06;93899.38;5075189;28;20051;-57
2021/12/02 05:44:06;;;;;;;19.27;14.57;;;;;;;11.78;33.07;93888.78;5077789;28;20045;-54
2021/12/02 05:46:33;;;;;;;19.38;14.15;;;;;;;11.94;32.86;93903.03;5072682;28;20051;-54
2021/12/02 05:49:00;;;;;;;21.48;15.82;;;;;;;13.05;30.79;93908.59;5077971;28;20052;-57
2021/12/02 05:51:27;;;;;;;21.17;14.55;;;;;;;11.87;33.13;93910.56;5077126;28;20044;-57
2021/12/02 05:53:54;;;;;;;19.40;14.70;;;;;;;11.74;33.51;93926.06;5077782;28;20055;-61
2021/12/02 05:56:22;;;;;;;19.17;15.20;;;;;;;11.36;34.57;93904.03;5072092;28;20359;-57
2021/12/02 05:58:49;;;;;;;20.95;16.13;;;;;;;12.01;33.12;93913.84;5040058;28;20044;-55
2021/12/02 06:01:16;;;;;;;18.83;15.40;;;;;;;12.88;31.42;93920.66;5065494;28;20048;-55
2021/12/02 06:03:43;;;;;;;21.92;16.67;;;;;;;12.29;32.51;93912.50;5077376;28;20057;-53
2021/12/02 06:06:10;;;;;;;28.33;20.65;;;;;;;12.14;33.05;93922.63;5077443;28;20051;-52
2021/12/02 06:08:37;;;;;;;25.73;20.73;;;;;;;11.87;33.49;93897.47;5077109;28;20051;-54
2021/12/02 06:11:04;;;;;;;27.45;21.40;;;;;;;12.76;32.27;93917.91;5077448;28;20048;-54
2021/12/02 06:13:32;;;;;;;30.35;23.02;;;;;;;13.40;31.23;93907.44;5077631;28;20052;-54
2021/12/02 06:15:59;;;;;;;33.78;22.48;;;;;;;12.39;32.54;93918.50;5058355;28;20048;-55
2021/12/02 06:18:26;;;;;;;38.95;26.50;;;;;;;13.50;30.68;93912.34;5057105;28;20064;-56
2021/12/02 06:20:55;;;;;;;38.90;29.38;;;;;;;13.81;30.16;93919.19;5057484;28;20041;-54
2021/12/02 06:23:23;;;;;;;37.05;28.10;;;;;;;12.54;32.83;93905.72;5057440;28;20041;-55
2021/12/02 06:25:50;;;;;;;46.78;29.67;;;;;;;14.48;29.19;93913.84;5071473;28;20052;-57
2021/12/02 06:28:18;;;;;;;32.70;25.52;;;;;;;13.32;31.58;93913.50;5057139;28;20056;-55
2021/12/02 06:30:46;;;;;;;32.45;25.63;;;;;;;14.20;29.54;93916.19;5057565;28;20044;-53
2021/12/02 06:33:13;;;;;;;32.95;24.98;;;;;;;13.26;31.76;93925.25;5076461;28;20051;-52
2021/12/02 06:35:41;;;;;;;36.40;27.02;;;;;;;14.70;29.06;93927.78;5088935;28;20079;-58
2021/12/02 06:38:09;;;;;;;38.70;28.63;;;;;;;13.37;31.34;93923.84;5075277;28;20049;-52
2021/12/02 06:40:38;;;;;;;35.92;27.70;;;;;;;13.46;31.06;93923.81;5057704;28;20095;-54
2021/12/02 06:43:06;;;;;;;47.17;36.20;;;;;;;13.35;32.00;93928.63;5074414;28;20041;-56
2021/12/02 06:45:33;;;;;;;46.50;35.60;;;;;;;14.31;29.88;93931.56;5077089;28;20044;-55
2021/12/02 06:48:00;;;;;;;46.95;34.10;;;;;;;13.73;31.26;93922.63;5076468;28;20055;-55
2021/12/02 06:50:30;;;;;;;44.08;35.13;;;;;;;14.33;30.25;93950.47;5077554;28;20048;-55
2021/12/02 06:52:57;;;;;;;34.67;26.52;;;;;;;13.42;31.12;93918.41;5077012;28;20048;-52
2021/12/02 06:55:24;;;;;;;34.15;25.77;;;;;;;13.75;30.77;93931.72;5077545;28;20044;-51
2021/12/02 06:57:51;;;;;;;31.50;25.15;;;;;;;14.19;30.19;93925.16;5072311;28;20041;-54
2021/12/02 07:00:20;;;;;;;30.58;23.30;;;;;;;14.14;29.76;93917.47;5057523;28;20112;-52
2021/12/02 07:02:48;;;;;;;32.03;22.98;;;;;;;13.75;30.73;93915.97;5071697;28;20049;-50
2021/12/02 07:05:18;;;;;;;32.38;23.42;;;;;;;13.99;30.14;93915.38;5076236;28;20063;-55
2021/12/02 07:07:46;;;;;;;29.75;22.55;;;;;;;15.13;28.08;93924.78;5077296;28;20370;-53
2021/12/02 07:10:19;;;;;;;26.08;22.48;;;;;;;13.49;31.28;93910.81;5058288;28;20048;-53
2021/12/02 07:12:49;;;;;;;29.00;23.13;;;;;;;13.65;31.18;93926.06;5069572;28;20447;-54
2021/12/02 07:15:20;;;;;;;29.67;22.15;;;;;;;14.06;30.29;93912.28;5076802;28;20362;-51
2021/12/02 07:17:55;;;;;;;32.25;24.35;;;;;;;13.54;31.09;93910.66;5077154;28;20052;-55
2021/12/02 07:20:23;;;;;;;33.55;23.85;;;;;;;14.47;29.98;93922.06;5091251;28;20052;-51
2021/12/02 07:22:50;;;;;;;29.70;22.05;;;;;;;14.49;29.89;93919.88;5076979;28;20040;-52
2021/12/02 07:25:18;;;;;;;30.17;23.05;;;;;;;14.77;29.61;93928.78;5076502;28;20044;-51
2021/12/02 07:27:47;;;;;;;28.30;22.42;;;;;;;15.63;28.32;93910.66;5076983;28;20051;-55
2021/12/02 07:30:15;;;;;;;30.38;23.67;;;;;;;14.87;29.28;93900.56;5077067;28;20449;-52
2021/12/02 07:32:42;;;;;;;28.80;20.85;;;;;;;15.27;28.73;93909.44;5076734;28;20394;-52
2021/12/02 07:35:13;;;;;;;30.48;23.92;;;;;;;16.16;26.26;93906.25;5087437;28;20399;-52
2021/12/02 07:37:44;;;;;;;29.20;23.23;;;;;;;15.25;28.55;93900.34;5076820;28;20057;-52
2021/12/02 07:40:12;;;;;;;27.92;22.02;;;;;;;15.09;28.08;93898.34;5075480;28;20071;-61
2021/12/02 07:42:40;;;;;;;34.08;27.05;;;;;;;15.61;27.90;93899.66;5071862;28;20032;-53
2021/12/02 07:45:08;;;;;;;41.30;29.95;;;;;;;14.94;28.85;93906.84;5076065;28;20044;-59
2021/12/02 07:47:38;;;;;;;37.28;26.50;;;;;;;14.71;28.87;93906.41;5073332;28;20048;-58
2021/12/02 07:50:07;;;;;;;38.83;29.40;;;;;;;14.94;28.87;93906.06;5055843;28;20044;-57
2021/12/02 07:52:35;;;;;;;44.40;33.17;;;;;;;16.98;26.26;93925.19;5056780;28;20447;-59
2021/12/02 07:55:07;;;;;;;44.05;33.67;;;;;;;16.26;27.55;93916.34;5064830;28;20447;-52
2021/12/02 07:57:34;;;;;;;42.63;33.85;;;;;;;16.10;28.00;93926.00;5075857;28;20074;-61
2021/12/02 08:00:02;;;;;;;45.75;33.88;;;;;;;16.07;28.34;93911.63;5075888;28;20051;-55
2021/12/02 08:02:35;;;;;;;36.65;28.13;;;;;;;16.94;26.36;93929.63;5074813;28;20044;-51
2021/12/02 08:05:03;;;;;;;33.45;26.45;;;;;;;17.65;24.90;93922.75;5068602;28;20643;-51
2021/12/02 08:07:31;;;;;;;35.22;27.80;;;;;;;16.27;27.06;93912.59;5076248;28;20354;-53
2021/12/02 08:09:58;;;;;;;37.55;29.92;;;;;;;17.23;25.63;93923.22;5059587;28;20041;-52
2021/12/02 08:12:25;;;;;;;40.97;32.60;;;;;;;17.78;25.55;93925.00;5057046;28;20044;-53
2021/12/02 08:14:52;;;;;;;42.13;33.38;;;;;;;16.67;26.94;93925.09;5062420;28;20048;-55
2021/12/02 08:17:19;;;;;;;38.65;29.00;;;;;;;16.43;27.43;93910.81;5074768;28;20055;-54
2021/12/02 08:19:46;;;;;;;36.00;28.27;;;;;;;18.25;24.41;93921.56;5075389;28;20040;-54
2021/12/02 08:22:13;;;;;;;31.70;25.70;;;;;;;16.99;26.58;93918.81;5075807;28;20044;-52
2021/12/02 08:24:40;;;;;;;29.02;24.38;;;;;;;17.44;25.65;93933.56;5075580;28;20047;-63
2021/12/02 08:27:08;;;;;;;30.08;23.42;;;;;;;17.37;26.70;93928.84;5074561;28;20053;-52
2021/12/02 08:29:35;;;;;;;36.22;24.17;;;;;;;16.80;26.13;93908.88;5075294;28;20051;-54
2021/12/02 08:32:02;;;;;;;31.10;23.45;;;;;;;17.97;25.39;93913.75;5090877;28;20052;-57
2021/12/02 08:34:29;;;;;;;26.88;21.23;;;;;;;16.98;26.55;93912.00;5058599;28;20059;-60
2021/12/02 08:36:57;;;;;;;24.35;19.25;;;;;;;17.19;25.91;93904.63;5075173;28;20040;-55
2021/12/02 08:39:27;;;;;;;22.13;18.20;;;;;;;17.67;24.93;93894.88;5074581;28;20064;-62
2021/12/02 08:41:55;;;;;;;20.58;16.90;;;;;;;18.17;24.24;93901.31;5074164;28;20056;-57
2021/12/02 08:44:24;;;;;;;21.23;15.73;;;;;;;17.85;24.11;93904.00;5073995;28;20052;-60
2021/12/02 08:46:53;;;;;;;19.42;15.32;;;;;;;17.91;23.88;93895.81;5073751;28;20056;-59
2021/12/02 08:49:21;;;;;;;22.55;15.75;;;;;;;18.23;24.11;93905.25;5074339;28;20051;-55
2021/12/02 08:51:49;;;;;;;20.65;14.68;;;;;;;17.77;24.26;93881.16;5080282;28;20371;-61
2021/12/02 08:54:16;;;;;;;18.48;12.55;;;;;;;18.75;23.38;93901.44;5062302;28;20044;-57
2021/12/02 08:56:43;;;;;;;17.45;13.23;;;;;;;17.87;25.49;93882.53;5054027;28;20403;-55
2021/12/02 08:59:10;;;;;;;18.70;13.23;;;;;;;17.68;24.08;93863.94;5054924;28;20055;-52
2021/12/02 09:01:38;;;;;;;21.90;16.40;;;;;;;20.15;21.24;93878.88;5071610;28;20044;-55
2021/12/02 09:04:05;;;;;;;20.67;16.80;;;;;;;19.09;23.22;93873.34;5075870;28;20043;-53
2021/12/02 09:06:32;;;;;;;21.50;17.42;;;;;;;18.47;23.39;93875.88;5075370;28;20362;-52
2021/12/02 09:09:01;;;;;;;19.17;14.05;;;;;;;19.23;21.97;93872.81;5074726;28;20053;-62
2021/12/02 09:11:30;;;;;;;19.10;15.18;;;;;;;18.14;24.38;93867.63;5073931;28;20358;-60
2021/12/02 09:13:58;;;;;;;22.15;14.77;;;;;;;18.05;23.92;93853.84;5059805;28;20059;-61
2021/12/02 09:16:26;;;;;;;20.77;14.80;;;;;;;18.84;24.07;93854.34;5055016;28;20052;-60
2021/12/02 09:18:54;;;;;;;17.92;13.45;;;;;;;18.43;23.50;93855.75;5055714;28;20041;-52
2021/12/02 09:21:21;;;;;;;20.33;14.90;;;;;;;19.51;21.82;93867.22;5067016;28;20040;-56
2021/12/02 09:23:49;;;;;;;19.20;14.13;;;;;;;18.73;22.55;93851.47;5075324;28;20040;-53
2021/12/02 09:26:17;;;;;;;19.02;13.57;;;;;;;18.54;23.25;93851.47;5075387;28;20048;-53
2021/12/02 09:28:52;;;;;;;19.08;15.13;;;;;;;18.28;23.15;93846.78;5091219;28;20048;-57
2021/12/02 09:31:20;;;;;;;23.00;16.10;;;;;;;18.90;23.34;93849.53;5089808;28;20079;-55
2021/12/02 09:33:48;;;;;;;18.55;15.23;;;;;;;18.23;23.78;93849.69;5075395;28;20044;-52
2021/12/02 09:36:16;;;;;;;18.75;15.15;;;;;;;18.75;22.76;93845.84;5074776;28;20048;-63
2021/12/02 09:38:44;;;;;;;21.70;15.65;;;;;;;18.95;22.72;93855.28;5068320;28;20049;-52
2021/12/02 09:41:11;;;;;;;23.08;16.10;;;;;;;18.81;22.96;93851.63;5068689;28;20040;-53
2021/12/02 09:43:39;;;;;;;19.70;15.68;;;;;;;18.74;22.74;93837.16;5074497;28;20075;-53
2021/12/02 09:46:06;;;;;;;16.67;13.07;;;;;;;19.10;22.62;93838.53;5075660;28;20052;-62
2021/12/02 09:48:34;;;;;;;18.38;13.82;;;;;;;19.05;22.58;93828.25;5075035;28;20052;-54
2021/12/02 09:51:11;;;;;;;18.88;14.25;;;;;;;18.66;23.62;93816.16;5075153;28;20044;-53
2021/12/02 09:54:01;;;;;;;18.92;14.30;;;;;;;18.27;23.61;93828.59;5075471;28;20049;-55
2021/12/02 09:56:30;;;;;;;16.75;13.05;;;;;;;18.58;23.19;93827.72;5072840;28;20056;-63
2021/12/02 09:59:05;;;;;;;15.70;11.55;;;;;;;18.87;22.80;93823.75;5074530;28;20051;-61
2021/12/02 10:01:40;;;;;;;16.50;11.23;;;;;;;19.00;23.00;93822.47;5074504;28;20494;-55
2021/12/02 10:04:10;;;;;;;18.90;12.55;;;;;;;18.64;23.02;93805.16;5072002;28;20447;-61
2021/12/02 10:06:40;;;;;;;15.32;13.48;;;;;;;19.43;22.62;93808.03;5073889;28;20431;-58
2021/12/02 10:09:27;;;;;;;15.75;13.60;;;;;;;19.18;23.02;93798.91;5072230;28;20048;-61
2021/12/02 10:12:00;;;;;;;19.88;13.40;;;;;;;19.97;21.62;93809.63;5071647;28;20055;-54
2021/12/02 10:14:34;;;;;;;15.88;13.30;;;;;;;19.68;22.33;93797.84;5053404;28;20735;-56
2021/12/02 10:17:54;;;;;;;17.70;13.65;;;;;;;18.97;22.41;93802.72;5053266;28;20052;-58
2021/12/02 10:23:20;;;;;;;15.13;12.00;;;;;;;19.39;22.41;93792.09;5073981;28;20080;-53
2021/12/02 10:25:55;;;;;;;14.70;11.50;;;;;;;19.39;22.47;93788.66;5074096;28;20469;-54
2021/12/02 10:28:22;;;;;;;16.85;12.05;;;;;;;19.77;22.61;93797.59;5076448;28;20055;-52
2021/12/02 10:30:57;;;;;;;15.45;11.65;;;;;;;20.02;22.74;93788.09;5077568;28;20044;-53
2021/12/02 10:33:45;;;;;;;14.45;10.93;;;;;;;19.69;21.66;93778.94;5056949;28;20059;-52
2021/12/02 10:36:39;;;;;;;15.48;11.65;;;;;;;20.49;21.58;93776.19;5056780;28;20049;-55
2021/12/02 10:39:25;;;;;;;14.23;11.77;;;;;;;20.20;21.67;93780.38;5060947;28;20415;-53
2021/12/02 10:42:05;;;;;;;17.02;13.48;;;;;;;20.17;21.37;93771.25;5076356;28;20443;-60
2021/12/02 10:44:35;;;;;;;17.67;12.25;;;;;;;19.86;21.89;93760.97;5077405;28;20363;-52
2021/12/02 10:47:04;;;;;;;15.40;11.50;;;;;;;20.55;20.82;93753.50;5077744;28;20040;-53
2021/12/02 10:49:33;;;;;;;16.42;12.88;;;;;;;20.45;21.61;93749.59;5059634;28;20059;-59
2021/12/02 10:52:03;;;;;;;20.23;13.25;;;;;;;20.16;21.65;93737.88;5074998;28;20051;-54
2021/12/02 10:54:36;;;;;;;17.05;13.93;;;;;;;20.41;21.80;93734.75;5077246;28;20363;-53
2021/12/02 10:57:17;;;;;;;15.20;12.07;;;;;;;21.26;20.58;93748.88;5076646;28;20045;-57
2021/12/02 10:59:49;;;;;;;15.38;11.52;;;;;;;20.26;21.36;93745.19;5075454;28;20060;-59
2021/12/02 11:02:34;;;;;;;16.38;12.07;;;;;;;20.33;21.17;93741.88;5076145;28;20051;-58
2021/12/02 11:05:23;;;;;;;19.60;10.88;;;;;;;19.67;21.78;93725.50;5075482;28;20056;-63
2021/12/02 11:08:06;;;;;;;15.60;11.43;;;;;;;20.87;21.67;93717.41;5079898;28;20051;-58
2021/12/02 11:10:50;;;;;;;15.63;11.43;;;;;;;19.96;22.13;93712.59;5056782;28;20068;-52
2021/12/02 11:13:20;;;;;;;18.13;11.82;;;;;;;20.36;21.25;93706.63;5074877;28;20055;-55
2021/12/02 11:15:47;;;;;;;17.17;11.50;;;;;;;20.32;21.57;93708.50;5075184;28;20383;-55
2021/12/02 11:18:16;;;;;;;22.88;13.80;;;;;;;20.22;22.07;93699.25;5076736;28;20439;-55
2021/12/02 11:20:50;;;;;;;18.17;12.48;;;;;;;19.89;21.42;93701.91;5077243;28;20048;-52
2021/12/02 11:23:18;;;;;;;15.93;12.40;;;;;;;21.31;20.79;93707.91;5074201;28;20048;-60
2021/12/02 11:26:01;;;;;;;17.00;13.02;;;;;;;20.69;21.31;93702.44;5053948;28;20355;-58
2021/12/02 11:28:31;;;;;;;19.52;13.35;;;;;;;20.23;21.53;93703.44;5070469;28;20048;-63
2021/12/02 11:31:10;;;;;;;18.58;12.88;;;;;;;19.89;21.99;93701.91;5076340;28;20383;-57
2021/12/02 11:33:39;;;;;;;19.48;13.15;;;;;;;20.19;21.93;93689.38;5059202;28;20045;-55
2021/12/02 11:36:16;;;;;;;17.67;12.85;;;;;;;20.69;21.70;93692.56;5056219;28;20041;-53
2021/12/02 11:38:44;;;;;;;17.67;14.07;;;;;;;21.46;20.34;93689.03;5064496;28;20053;-53
2021/12/02 11:41:13;;;;;;;17.83;13.55;;;;;;;20.17;22.51;93681.03;5038591;28;20444;-62
2021/12/02 11:43:54;;;;;;;21.33;12.60;;;;;;;19.88;22.58;93695.84;5074461;28;20482;-53
2021/12/02 11:46:22;;;;;;;17.47;12.60;;;;;;;19.68;21.90;93676.66;5056415;28;20057;-53